createdAt,value
2022-08-08T00:02:03.676Z,101130.75
2022-08-08T00:05:03.330Z,101131.08
2022-08-08T00:08:19.912Z,101133.39
2022-08-08T00:11:46.770Z,101126.97
2022-08-08T00:15:00.646Z,101123.34
2022-08-08T00:18:03.190Z,101120.43
2022-08-08T00:21:00.961Z,101121.55
2022-08-08T00:23:43.098Z,101114.80
2022-08-08T00:26:26.271Z,101115.70
2022-08-08T00:29:44.986Z,101115.89
2022-08-08T00:33:03.932Z,101113.59
2022-08-08T00:35:50.939Z,101113.98
2022-08-08T00:38:51.559Z,101111.73
2022-08-08T00:42:07.817Z,101110.56
2022-08-08T00:45:29.368Z,101109.60
2022-08-08T00:48:43.653Z,101106.69
2022-08-08T00:51:51.738Z,101112.02
2022-08-08T00:54:56.406Z,101115.63
2022-08-08T00:57:40.442Z,101118.73
2022-08-08T01:00:22.246Z,101115.04
2022-08-08T01:03:59.071Z,101112.05
2022-08-08T01:07:20.776Z,101114.27
2022-08-08T01:10:35.322Z,101117.04
2022-08-08T01:13:44.476Z,101115.56
2022-08-08T01:17:51.640Z,101113.98
2022-08-08T01:20:44.301Z,101108.77
2022-08-08T01:24:05.460Z,101108.30
2022-08-08T01:27:02.864Z,101109.55
2022-08-08T01:30:11.109Z,101102.75
2022-08-08T01:33:43.040Z,101103.00
2022-08-08T01:37:57.214Z,101095.17
2022-08-08T01:41:15.946Z,101092.66
2022-08-08T01:43:57.286Z,101096.81
2022-08-08T01:47:00.651Z,101097.40
2022-08-08T01:49:57.510Z,101095.57
2022-08-08T01:55:15.791Z,101093.98
2022-08-08T01:56:34.392Z,101095.26
2022-08-08T02:00:01.776Z,101097.48
2022-08-08T02:02:49.925Z,101098.45
2022-08-08T02:05:56.529Z,101102.36
2022-08-08T02:09:16.303Z,101103.02
2022-08-08T02:12:00.387Z,101105.83
2022-08-08T02:15:05.003Z,101104.91
2022-08-08T02:18:10.506Z,101104.70
2022-08-08T02:21:20.147Z,101111.48
2022-08-08T02:24:23.720Z,101117.48
2022-08-08T02:27:18.417Z,101115.04
2022-08-08T02:30:00.505Z,101120.13
2022-08-08T02:32:57.928Z,101122.36
2022-08-08T02:36:04.978Z,101122.55
2022-08-08T02:38:39.998Z,101124.86
2022-08-08T02:42:04.206Z,101126.45
2022-08-08T02:45:21.257Z,101126.42
2022-08-08T02:47:52.129Z,101121.30
2022-08-08T02:50:47.214Z,101125.27
2022-08-08T02:53:45.543Z,101128.41
2022-08-08T02:56:40.820Z,101129.18
2022-08-08T02:59:37.537Z,101129.88
2022-08-08T03:02:54.376Z,101128.17
2022-08-08T03:05:32.815Z,101129.59
2022-08-08T03:08:52.403Z,101123.30
2022-08-08T03:12:01.850Z,101127.79
2022-08-08T03:15:56.875Z,101131.36
2022-08-08T03:18:31.306Z,101127.76
2022-08-08T03:21:40.792Z,101134.19
2022-08-08T03:24:35.882Z,101132.59
2022-08-08T03:27:21.806Z,101138.73
2022-08-08T03:30:21.596Z,101139.73
2022-08-08T03:33:55.766Z,101140.85
2022-08-08T03:36:19.642Z,101143.44
2022-08-08T03:39:14.136Z,101144.35
2022-08-08T03:42:13.285Z,101142.94
2022-08-08T03:46:05.287Z,101139.96
2022-08-08T03:48:10.043Z,101142.54
2022-08-08T03:50:51.755Z,101142.93
2022-08-08T03:53:47.447Z,101143.32
2022-08-08T04:00:02.994Z,101146.41
2022-08-08T04:03:16.045Z,101150.80
2022-08-08T04:05:50.007Z,101150.88
2022-08-08T04:08:33.798Z,101152.55
2022-08-08T04:11:17.620Z,101148.54
2022-08-08T04:14:35.723Z,101144.45
2022-08-08T04:17:22.311Z,101145.73
2022-08-08T04:20:12.812Z,101151.17
2022-08-08T04:22:52.879Z,101149.91
2022-08-08T04:25:38.312Z,101151.56
2022-08-08T04:28:37.174Z,101156.65
2022-08-08T04:31:57.382Z,101157.92
2022-08-08T04:34:32.384Z,101153.71
2022-08-08T04:37:31.807Z,101152.98
2022-08-08T04:40:07.918Z,101155.05
2022-08-08T04:42:58.065Z,101155.17
2022-08-08T04:45:39.274Z,101159.73
2022-08-08T04:48:38.642Z,101156.94
2022-08-08T04:51:11.880Z,101152.27
2022-08-08T04:54:38.294Z,101154.63
2022-08-08T04:57:13.575Z,101154.19
2022-08-08T04:59:59.796Z,101157.66
2022-08-08T05:02:56.815Z,101164.53
2022-08-08T05:05:45.485Z,101163.55
2022-08-08T05:08:32.879Z,101166.07
2022-08-08T05:11:24.153Z,101168.50
2022-08-08T05:14:02.248Z,101171.83
2022-08-08T05:16:53.504Z,101171.73
2022-08-08T05:20:08.856Z,101171.50
2022-08-08T05:22:51.677Z,101176.49
2022-08-08T05:25:41.196Z,101175.84
2022-08-08T05:28:56.625Z,101175.67
2022-08-08T05:32:04.356Z,101173.97
2022-08-08T05:34:46.752Z,101176.34
2022-08-08T05:37:49.053Z,101173.16
2022-08-08T05:40:41.205Z,101179.58
2022-08-08T05:44:02.311Z,101183.04
2022-08-08T05:46:47.664Z,101183.14
2022-08-08T05:49:31.670Z,101183.90
2022-08-08T05:52:51.403Z,101185.82
2022-08-08T05:56:08.274Z,101185.05
2022-08-08T05:58:54.217Z,101189.85
2022-08-08T06:01:55.750Z,101187.92
2022-08-08T06:04:31.424Z,101191.78
2022-08-08T06:07:11.518Z,101190.87
2022-08-08T06:10:01.340Z,101192.69
2022-08-08T06:13:03.941Z,101190.55
2022-08-08T06:15:53.705Z,101194.27
2022-08-08T06:18:38.102Z,101197.30
2022-08-08T06:21:32.427Z,101194.34
2022-08-08T06:24:31.157Z,101195.27
2022-08-08T06:27:16.416Z,101194.98
2022-08-08T06:30:19.703Z,101197.04
2022-08-08T06:33:36.880Z,101199.66
2022-08-08T06:36:41.872Z,101199.34
2022-08-08T06:39:56.105Z,101198.29
2022-08-08T06:42:50.014Z,101198.78
2022-08-08T06:45:33.843Z,101197.30
2022-08-08T06:48:18.892Z,101201.15
2022-08-08T06:50:52.022Z,101203.04
2022-08-08T06:53:38.858Z,101210.80
2022-08-08T06:56:23.497Z,101210.48
2022-08-08T06:59:02.623Z,101210.34
2022-08-08T07:02:26.506Z,101210.06
2022-08-08T07:09:59.260Z,101208.48
2022-08-08T07:12:54.897Z,101206.86
2022-08-08T07:16:05.286Z,101209.16
2022-08-08T07:19:23.840Z,101210.38
2022-08-08T07:22:29.386Z,101212.67
2022-08-08T07:25:29.446Z,101213.98
2022-08-08T07:28:22.459Z,101214.23
2022-08-08T07:31:02.571Z,101219.30
2022-08-08T07:34:00.518Z,101218.81
2022-08-08T07:36:50.307Z,101220.25
2022-08-08T07:39:45.538Z,101219.08
2022-08-08T07:42:45.200Z,101215.88
2022-08-08T07:45:13.620Z,101217.74
2022-08-08T07:48:02.969Z,101215.29
2022-08-08T07:50:54.104Z,101218.15
2022-08-08T07:54:00.896Z,101216.52
2022-08-08T07:57:02.359Z,101218.15
2022-08-08T08:00:15.902Z,101221.27
2022-08-08T08:03:43.850Z,101224.20
2022-08-08T08:06:27.129Z,101218.33
2022-08-08T08:09:09.926Z,101217.45
2022-08-08T08:11:51.995Z,101222.98
2022-08-08T08:14:54.319Z,101221.54
2022-08-08T08:17:48.623Z,101217.45
2022-08-08T08:20:31.313Z,101212.08
2022-08-08T08:23:41.226Z,101217.90
2022-08-08T08:27:03.616Z,101211.15
2022-08-08T08:30:04.198Z,101210.27
2022-08-08T08:32:51.361Z,101211.19
2022-08-08T08:35:30.084Z,101211.19
2022-08-08T08:38:30.930Z,101207.94
2022-08-08T08:41:30.971Z,101206.48
2022-08-08T08:44:23.724Z,101207.73
2022-08-08T08:47:19.404Z,101205.41
2022-08-08T08:50:46.382Z,101204.34
2022-08-08T08:53:55.509Z,101201.84
2022-08-08T08:56:46.855Z,101199.70
2022-08-08T08:59:30.623Z,101200.95
2022-08-08T09:02:24.037Z,101203.75
2022-08-08T09:05:49.108Z,101200.84
2022-08-08T09:08:22.119Z,101202.33
2022-08-08T09:11:47.383Z,101201.78
2022-08-08T09:14:43.117Z,101196.32
2022-08-08T09:17:40.830Z,101197.02
2022-08-08T09:21:56.797Z,101195.62
2022-08-08T09:23:38.181Z,101200.55
2022-08-08T09:26:47.185Z,101198.09
2022-08-08T09:30:22.020Z,101200.79
2022-08-08T09:34:15.364Z,101196.64
2022-08-08T09:36:28.082Z,101193.58
2022-08-08T09:39:19.373Z,101194.48
2022-08-08T09:42:21.012Z,101196.64
2022-08-08T09:46:00.912Z,101194.66
2022-08-08T09:48:49.968Z,101196.63
2022-08-08T09:51:41.482Z,101200.23
2022-08-08T09:55:17.184Z,101193.77
2022-08-08T10:01:58.318Z,101192.56
2022-08-08T10:04:47.328Z,101185.45
2022-08-08T10:07:45.146Z,101187.17
2022-08-08T10:10:38.866Z,101185.19
2022-08-08T10:13:35.395Z,101191.63
2022-08-08T10:16:22.455Z,101186.38
2022-08-08T10:19:23.698Z,101182.84
2022-08-08T10:22:06.197Z,101184.19
2022-08-08T10:25:56.902Z,101181.19
2022-08-08T10:29:06.594Z,101183.50
2022-08-08T10:32:03.077Z,101182.98
2022-08-08T10:35:01.048Z,101181.59
2022-08-08T10:38:14.442Z,101176.16
2022-08-08T10:41:05.471Z,101168.21
2022-08-08T10:43:59.905Z,101171.10
2022-08-08T10:46:38.938Z,101172.84
2022-08-08T10:50:01.223Z,101171.33
2022-08-08T10:53:04.732Z,101170.77
2022-08-08T10:55:56.736Z,101171.30
2022-08-08T10:58:47.387Z,101168.05
2022-08-08T11:01:49.371Z,101166.93
2022-08-08T11:05:22.974Z,101169.20
2022-08-08T11:08:38.865Z,101165.08
2022-08-08T11:11:32.005Z,101165.27
2022-08-08T11:17:59.876Z,101165.36
2022-08-08T11:20:52.351Z,101162.52
2022-08-08T11:24:02.915Z,101157.13
2022-08-08T11:26:58.148Z,101155.77
2022-08-08T11:30:18.825Z,101153.98
2022-08-08T11:33:05.004Z,101149.45
2022-08-08T11:35:56.258Z,101149.41
2022-08-08T11:38:55.216Z,101144.22
2022-08-08T11:41:40.529Z,101137.07
2022-08-08T11:44:29.467Z,101141.61
2022-08-08T11:47:03.545Z,101144.51
2022-08-08T11:50:26.102Z,101144.98
2022-08-08T11:53:13.916Z,101149.16
2022-08-08T11:56:26.604Z,101144.40
2022-08-08T11:59:09.979Z,101149.27
2022-08-08T12:02:21.267Z,101145.91
2022-08-08T12:05:25.420Z,101147.35
2022-08-08T12:08:17.726Z,101147.61
2022-08-08T12:11:13.838Z,101143.73
2022-08-08T12:14:03.494Z,101136.77
2022-08-08T12:17:08.486Z,101138.68
2022-08-08T12:20:07.336Z,101139.17
2022-08-08T12:22:52.647Z,101136.56
2022-08-08T12:25:31.097Z,101134.96
2022-08-08T12:28:40.024Z,101136.06
2022-08-08T12:31:24.807Z,101130.19
2022-08-08T12:34:15.350Z,101132.59
2022-08-08T12:37:08.494Z,101129.41
2022-08-08T12:40:06.933Z,101127.81
2022-08-08T12:43:00.006Z,101128.35
2022-08-08T12:45:58.700Z,101125.33
2022-08-08T12:49:05.330Z,101120.64
2022-08-08T12:52:14.360Z,101121.73
2022-08-08T12:55:56.653Z,101119.98
2022-08-08T12:59:05.844Z,101114.52
2022-08-08T13:01:46.872Z,101112.35
2022-08-08T13:05:26.236Z,101115.60
2022-08-08T13:08:33.392Z,101111.89
2022-08-08T13:12:17.962Z,101110.23
2022-08-08T13:14:53.314Z,101110.02
2022-08-08T13:18:09.407Z,101109.41
2022-08-08T13:20:55.781Z,101112.50
2022-08-08T13:23:30.855Z,101112.89
2022-08-08T13:26:19.444Z,101108.40
2022-08-08T13:29:28.849Z,101110.90
2022-08-08T13:32:20.883Z,101107.91
2022-08-08T13:35:05.084Z,101108.84
2022-08-08T13:38:06.594Z,101115.28
2022-08-08T13:41:02.962Z,101107.23
2022-08-08T13:43:39.690Z,101107.73
2022-08-08T13:46:26.336Z,101104.48
2022-08-08T13:50:35.640Z,101106.79
2022-08-08T13:52:54.999Z,101105.08
2022-08-08T13:55:36.389Z,101100.44
2022-08-08T13:58:29.151Z,101098.87
2022-08-08T14:01:41.656Z,101097.24
2022-08-08T14:04:34.350Z,101094.44
2022-08-08T14:07:13.631Z,101093.27
2022-08-08T14:10:17.425Z,101094.42
2022-08-08T14:12:57.611Z,101091.66
2022-08-08T14:15:50.280Z,101089.13
2022-08-08T14:18:51.890Z,101091.25
2022-08-08T14:21:53.798Z,101098.16
2022-08-08T14:24:32.635Z,101094.73
2022-08-08T14:27:27.220Z,101100.00
2022-08-08T14:30:19.021Z,101103.71
2022-08-08T14:33:15.369Z,101105.20
2022-08-08T14:36:01.207Z,101104.77
2022-08-08T14:38:51.822Z,101101.89
2022-08-08T14:41:53.328Z,101102.65
2022-08-08T14:44:39.434Z,101103.98
2022-08-08T14:47:40.032Z,101099.23
2022-08-08T14:50:39.031Z,101096.83
2022-08-08T14:53:27.269Z,101101.67
2022-08-08T14:56:04.510Z,101102.23
2022-08-08T14:58:35.893Z,101107.01
2022-08-08T15:01:24.444Z,101105.28
2022-08-08T15:04:26.851Z,101101.71
2022-08-08T15:07:24.191Z,101106.98
2022-08-08T15:10:37.596Z,101106.25
2022-08-08T15:13:06.321Z,101106.65
2022-08-08T15:16:02.036Z,101100.34
2022-08-08T15:18:34.576Z,101101.61
2022-08-08T15:21:37.985Z,101100.48
2022-08-08T15:24:22.520Z,101097.39
2022-08-08T15:27:58.450Z,101096.88
2022-08-08T15:30:21.081Z,101100.52
2022-08-08T15:32:51.250Z,101097.23
2022-08-08T15:35:34.958Z,101094.11
2022-08-08T15:38:25.039Z,101094.42
2022-08-08T15:40:58.815Z,101092.89
2022-08-08T15:44:01.158Z,101091.42
2022-08-08T15:46:50.831Z,101092.16
2022-08-08T15:49:23.285Z,101092.20
2022-08-08T15:52:12.734Z,101096.41
2022-08-08T15:54:51.729Z,101095.21
2022-08-08T15:57:23.073Z,101095.98
2022-08-08T16:00:06.538Z,101093.30
2022-08-08T16:02:54.423Z,101097.29
2022-08-08T16:05:23.945Z,101100.65
2022-08-08T16:07:54.615Z,101095.17
2022-08-08T16:13:11.972Z,101096.34
2022-08-08T16:13:30.948Z,101094.98
2022-08-08T16:16:33.943Z,101091.89
2022-08-08T16:19:23.510Z,101096.33
2022-08-08T16:22:08.136Z,101093.59
2022-08-08T16:24:56.787Z,101092.14
2022-08-08T16:27:29.454Z,101094.86
2022-08-08T16:30:13.273Z,101095.80
2022-08-08T16:33:00.407Z,101101.27
2022-08-08T16:35:50.040Z,101098.61
2022-08-08T16:38:47.539Z,101097.76
2022-08-08T16:41:51.214Z,101098.55
2022-08-08T16:44:54.288Z,101100.04
2022-08-08T16:47:58.441Z,101101.91
2022-08-08T16:50:52.838Z,101101.64
2022-08-08T16:55:05.578Z,101105.63
2022-08-08T16:57:23.626Z,101106.43
2022-08-08T17:00:10.509Z,101107.92
2022-08-08T17:02:57.182Z,101105.23
2022-08-08T17:05:45.060Z,101114.45
2022-08-08T17:09:14.986Z,101115.91
2022-08-08T17:12:02.879Z,101113.98
2022-08-08T17:15:17.260Z,101117.61
2022-08-08T17:18:13.425Z,101118.01
2022-08-08T17:20:58.744Z,101119.27
2022-08-08T17:24:02.037Z,101133.14
2022-08-08T17:26:38.936Z,101133.33
2022-08-08T17:29:33.393Z,101135.14
2022-08-08T17:34:35.054Z,101138.02
2022-08-08T17:35:54.662Z,101140.16
2022-08-08T17:39:46.056Z,101137.30
2022-08-08T17:42:14.863Z,101135.15
2022-08-08T17:45:14.174Z,101136.41
2022-08-08T17:48:14.894Z,101139.66
2022-08-08T17:51:39.472Z,101143.07
2022-08-08T17:54:26.000Z,101149.18
2022-08-08T17:57:01.370Z,101148.99
2022-08-08T17:59:58.944Z,101154.00
2022-08-08T18:03:08.537Z,101155.26
2022-08-08T18:05:59.963Z,101160.29
2022-08-08T18:09:13.193Z,101160.64
2022-08-08T18:11:58.467Z,101159.92
2022-08-08T18:14:32.679Z,101160.96
2022-08-08T18:18:27.383Z,101169.55
2022-08-08T18:20:54.907Z,101174.02
2022-08-08T18:23:55.561Z,101177.59
2022-08-08T18:27:06.322Z,101183.87
2022-08-08T18:30:00.140Z,101186.53
2022-08-08T18:32:44.888Z,101193.51
2022-08-08T18:35:48.682Z,101197.60
2022-08-08T18:39:01.925Z,101203.85
2022-08-08T18:41:51.200Z,101207.20
2022-08-08T18:46:00.639Z,101213.10
2022-08-08T18:48:54.374Z,101213.08
2022-08-08T18:51:53.856Z,101216.48
2022-08-08T18:54:44.031Z,101216.84
2022-08-08T18:57:45.389Z,101216.29
2022-08-08T19:00:22.516Z,101222.90
2022-08-08T19:03:14.177Z,101220.73
2022-08-08T19:05:57.747Z,101229.50
2022-08-08T19:08:34.375Z,101230.36
2022-08-08T19:11:36.477Z,101227.98
2022-08-08T19:14:24.320Z,101226.36
2022-08-08T19:17:07.255Z,101224.16
2022-08-08T19:20:11.789Z,101228.27
2022-08-08T19:23:10.359Z,101229.69
2022-08-08T19:26:19.933Z,101231.27
2022-08-08T19:28:55.291Z,101233.75
2022-08-08T19:31:36.019Z,101235.67
2022-08-08T19:34:35.715Z,101239.98
2022-08-08T19:37:59.875Z,101243.37
2022-08-08T19:40:36.673Z,101245.28
2022-08-08T19:43:17.231Z,101245.27
2022-08-08T19:46:00.656Z,101247.05
2022-08-08T19:48:39.873Z,101249.20
2022-08-08T19:51:34.198Z,101250.07
2022-08-08T19:54:16.576Z,101254.37
2022-08-08T19:57:03.947Z,101253.96
2022-08-08T19:59:57.790Z,101259.36
2022-08-08T20:02:54.693Z,101260.23
2022-08-08T20:06:15.938Z,101262.02
2022-08-08T20:08:50.058Z,101261.65
2022-08-08T20:11:23.683Z,101263.80
2022-08-08T20:14:34.810Z,101264.17
2022-08-08T20:17:12.950Z,101265.42
2022-08-08T20:20:10.467Z,101268.33
2022-08-08T20:23:31.592Z,101267.62
2022-08-08T20:26:38.134Z,101265.30
2022-08-08T20:29:45.724Z,101266.36
2022-08-08T20:32:54.841Z,101268.87
2022-08-08T20:35:32.853Z,101269.76
2022-08-08T20:38:53.843Z,101272.08
2022-08-08T20:41:39.247Z,101272.59
2022-08-08T20:44:54.641Z,101268.61
2022-08-08T20:47:45.506Z,101269.14
2022-08-08T20:50:54.556Z,101267.84
2022-08-08T20:54:00.726Z,101273.69
2022-08-08T20:57:11.766Z,101270.09
2022-08-08T21:00:05.554Z,101275.06
2022-08-08T21:02:57.743Z,101275.02
2022-08-08T21:05:58.756Z,101271.89
2022-08-08T21:08:51.246Z,101270.39
2022-08-08T21:11:50.506Z,101267.45
2022-08-08T21:16:05.880Z,101270.27
2022-08-08T21:18:28.062Z,101271.16
2022-08-08T21:21:39.707Z,101267.92
2022-08-08T21:24:55.179Z,101267.73
2022-08-08T21:28:09.722Z,101262.64
2022-08-08T21:30:39.538Z,101266.34
2022-08-08T21:33:32.485Z,101267.20
2022-08-08T21:36:32.474Z,101267.04
2022-08-08T21:39:23.009Z,101264.70
2022-08-08T21:42:38.054Z,101267.57
2022-08-08T21:45:44.191Z,101270.77
2022-08-08T21:48:41.258Z,101268.25
2022-08-08T21:54:32.113Z,101267.71
2022-08-08T21:56:18.245Z,101266.98
2022-08-08T21:58:09.684Z,101269.48
2022-08-08T22:01:28.178Z,101274.80
2022-08-08T22:04:16.421Z,101270.63
2022-08-08T22:06:48.740Z,101271.16
2022-08-08T22:09:44.373Z,101274.90
2022-08-08T22:12:40.258Z,101276.13
2022-08-08T22:15:24.961Z,101272.86
2022-08-08T22:18:02.874Z,101276.23
2022-08-08T22:21:14.459Z,101274.77
2022-08-08T22:23:58.308Z,101275.09
2022-08-08T22:27:02.416Z,101273.80
2022-08-08T22:30:01.161Z,101275.38
2022-08-08T22:32:38.474Z,101276.60
2022-08-08T22:36:05.452Z,101274.42
2022-08-08T22:38:25.651Z,101273.15
2022-08-08T22:41:01.231Z,101276.35
2022-08-08T22:44:02.037Z,101272.05
2022-08-08T22:46:46.789Z,101271.65
2022-08-08T22:49:30.835Z,101276.23
2022-08-08T22:52:11.120Z,101275.81
2022-08-08T22:55:04.231Z,101275.79
2022-08-08T22:57:44.161Z,101278.61
2022-08-08T23:00:23.796Z,101279.13
2022-08-08T23:03:20.373Z,101279.45
2022-08-08T23:06:11.358Z,101282.65
2022-08-08T23:08:55.509Z,101279.94
2022-08-08T23:12:18.375Z,101277.98
2022-08-08T23:14:56.087Z,101283.13
2022-08-08T23:17:54.025Z,101281.14
2022-08-08T23:20:57.335Z,101280.73
2022-08-08T23:23:32.367Z,101279.15
2022-08-08T23:26:16.485Z,101282.90
2022-08-08T23:28:57.209Z,101284.16
2022-08-08T23:31:41.763Z,101282.17
2022-08-08T23:34:29.380Z,101281.62
2022-08-08T23:37:07.908Z,101277.64
2022-08-08T23:39:49.549Z,101284.60
2022-08-08T23:42:31.353Z,101283.86
2022-08-08T23:45:06.932Z,101284.52
2022-08-08T23:49:05.329Z,101287.15
2022-08-08T23:50:57.216Z,101283.20
2022-08-08T23:54:06.265Z,101280.36
2022-08-08T23:56:38.460Z,101278.27
2022-08-08T23:59:16.783Z,101279.94
